Time;durP1;ratioP1;P1;durP2;ratioP2;P2;SDS_P1;SDS_P2;PMS_P1;PMS_P2;Temp;Humidity;BMP_temperature;BMP_pressure;BME280_temperature;BME280_humidity;BME280_pressure;Samples;Min_cycle;Max_cycle;Signal;HPM_P1;HPM_P2
2022/12/11 00:02:20;;;;;;;16.35;6.40;;;5.40;99.90;;;;;;5117256;28;20024;-62
2022/12/11 00:04:46;;;;;;;18.65;6.28;;;5.40;99.90;;;;;;5117129;28;20028;-62
2022/12/11 00:07:11;;;;;;;19.15;6.85;;;5.40;99.90;;;;;;5117074;28;20039;-62
2022/12/11 00:09:37;;;;;;;13.32;4.53;;;5.40;99.90;;;;;;5117000;28;20026;-62
2022/12/11 00:12:04;;;;;;;28.58;9.57;;;5.30;99.90;;;;;;5117267;28;20102;-62
2022/12/11 00:14:30;;;;;;;20.70;7.30;;;5.20;99.90;;;;;;5117033;28;20485;-62
2022/12/11 00:16:56;;;;;;;23.42;8.70;;;5.20;99.90;;;;;;5117118;28;20043;-62
2022/12/11 00:19:22;;;;;;;21.10;7.50;;;5.00;99.90;;;;;;5116872;28;20044;-62
2022/12/11 00:21:48;;;;;;;36.10;12.25;;;4.90;99.90;;;;;;5116988;28;20031;-62
2022/12/11 00:24:14;;;;;;;16.33;5.90;;;4.90;99.90;;;;;;5116792;28;20031;-62
2022/12/11 00:26:40;;;;;;;15.50;5.03;;;4.90;99.90;;;;;;5117005;28;20115;-62
2022/12/11 00:29:07;;;;;;;12.85;5.60;;;4.80;99.90;;;;;;5098573;28;20032;-62
2022/12/11 00:31:33;;;;;;;10.15;3.70;;;4.70;99.90;;;;;;5116672;28;20023;-62
2022/12/11 00:34:01;;;;;;;12.45;4.75;;;4.50;99.90;;;;;;5116641;28;20099;-62
2022/12/11 00:36:26;;;;;;;13.68;4.90;;;4.50;99.90;;;;;;5116695;28;20492;-61
2022/12/11 00:38:53;;;;;;;12.50;4.88;;;4.40;99.90;;;;;;5116557;28;20165;-61
2022/12/11 00:41:19;;;;;;;5.90;3.22;;;4.30;99.90;;;;;;5116625;28;20028;-62
2022/12/11 00:43:46;;;;;;;9.45;3.72;;;4.30;99.90;;;;;;5116359;28;20028;-62
2022/12/11 00:46:12;;;;;;;11.80;3.95;;;4.20;99.90;;;;;;5116291;28;20035;-62
2022/12/11 00:48:38;;;;;;;4.90;2.78;;;4.10;99.90;;;;;;5116535;28;20027;-61
2022/12/11 00:51:05;;;;;;;6.22;2.92;;;4.10;99.90;;;;;;5116247;28;20453;-62
2022/12/11 00:53:31;;;;;;;6.72;3.10;;;4.00;99.90;;;;;;5116403;28;20019;-61
2022/12/11 00:55:56;;;;;;;8.93;3.00;;;3.90;99.90;;;;;;5115291;28;20063;-61
2022/12/11 00:58:22;;;;;;;6.45;3.15;;;3.90;99.90;;;;;;5116153;28;20474;-61
2022/12/11 01:00:51;;;;;;;6.18;2.70;;;3.90;99.90;;;;;;5115976;28;20030;-61
2022/12/11 01:03:17;;;;;;;6.10;2.85;;;3.80;99.90;;;;;;5116082;28;20084;-62
2022/12/11 01:05:51;;;;;;;2.85;1.50;;;3.70;99.90;;;;;;5115814;28;20393;-62
2022/12/11 01:08:17;;;;;;;8.13;4.03;;;3.60;99.90;;;;;;5116134;28;20035;-61
2022/12/11 01:10:43;;;;;;;4.43;2.05;;;3.50;99.90;;;;;;5115837;28;20027;-62
2022/12/11 01:13:10;;;;;;;6.97;2.60;;;3.50;99.90;;;;;;5115768;28;20027;-61
2022/12/11 01:15:42;;;;;;;7.15;3.38;;;3.50;99.90;;;;;;5115959;28;20024;-62
2022/12/11 01:18:10;;;;;;;11.02;4.35;;;3.50;99.90;;;;;;5115969;28;20027;-62
2022/12/11 01:20:38;;;;;;;10.88;4.78;;;3.40;99.90;;;;;;5115508;28;20086;-61
2022/12/11 01:23:05;;;;;;;6.85;3.50;;;3.40;99.90;;;;;;5115711;28;20024;-61
2022/12/11 01:25:32;;;;;;;6.50;2.58;;;3.40;99.90;;;;;;5115622;28;20039;-62
2022/12/11 01:27:58;;;;;;;10.43;4.20;;;3.30;99.90;;;;;;5115582;28;20028;-62
2022/12/11 01:30:25;;;;;;;3.78;2.47;;;3.30;99.90;;;;;;5115692;28;20026;-62
2022/12/11 01:32:51;;;;;;;5.78;2.45;;;3.10;99.90;;;;;;5115670;28;20473;-61
2022/12/11 01:35:18;;;;;;;6.30;2.83;;;3.20;99.90;;;;;;5115386;28;20031;-62
2022/12/11 01:37:45;;;;;;;8.77;3.25;;;3.10;99.90;;;;;;5115612;28;20089;-61
2022/12/11 01:40:16;;;;;;;4.53;2.20;;;3.20;99.90;;;;;;5097244;28;20020;-61
2022/12/11 01:42:42;;;;;;;9.45;2.88;;;3.10;99.90;;;;;;5097046;28;20096;-61
2022/12/11 01:45:20;;;;;;;7.28;2.75;;;3.00;99.90;;;;;;5115577;28;20068;-61
2022/12/11 01:48:10;;;;;;;6.65;2.58;;;3.00;99.90;;;;;;5115141;28;20023;-62
2022/12/11 01:50:41;;;;;;;6.28;1.85;;;3.00;99.90;;;;;;5115257;28;20051;-62
2022/12/11 01:53:11;;;;;;;3.45;1.38;;;2.90;99.90;;;;;;5115385;28;20031;-62
2022/12/11 01:55:38;;;;;;;4.22;1.60;;;2.80;99.90;;;;;;5115251;28;20110;-62
2022/12/11 01:58:05;;;;;;;5.05;1.33;;;2.80;99.90;;;;;;5115234;28;20032;-61
2022/12/11 02:00:31;;;;;;;3.22;1.38;;;2.90;99.90;;;;;;5115181;28;20051;-61
2022/12/11 02:02:57;;;;;;;3.20;1.48;;;2.90;99.90;;;;;;5115133;28;20484;-61
2022/12/11 02:05:23;;;;;;;6.97;1.77;;;3.00;99.90;;;;;;5114867;28;20027;-61
2022/12/11 02:07:54;;;;;;;4.45;1.83;;;2.90;99.90;;;;;;5114919;28;20027;-61
2022/12/11 02:10:22;;;;;;;;;;;2.90;99.90;;;;;;5115446;28;20028;-61
2022/12/11 02:12:55;;;;;;;5.88;2.55;;;2.80;99.90;;;;;;5114982;28;20254;-61
2022/12/11 02:15:38;;;;;;;4.65;2.13;;;2.90;99.90;;;;;;5115160;28;20031;-61
2022/12/11 02:18:13;;;;;;;5.38;1.75;;;2.80;99.90;;;;;;5115103;28;20058;-61
2022/12/11 02:20:57;;;;;;;8.60;1.90;;;2.80;99.90;;;;;;5114905;28;20067;-61
2022/12/11 02:23:41;;;;;;;6.32;2.17;;;2.90;99.90;;;;;;5114961;28;20389;-61
2022/12/11 02:26:18;;;;;;;7.57;1.73;;;2.90;99.90;;;;;;5114822;28;20024;-61
2022/12/11 02:28:57;;;;;;;4.95;1.65;;;2.90;99.90;;;;;;5096610;28;20085;-61
2022/12/11 02:31:40;;;;;;;14.98;5.13;;;2.90;99.90;;;;;;5114767;28;20550;-61
2022/12/11 02:34:28;;;;;;;6.82;1.70;;;2.90;99.90;;;;;;5115030;28;20023;-62
2022/12/11 02:37:00;;;;;;;11.23;2.40;;;2.90;99.90;;;;;;5114806;28;20035;-61
2022/12/11 02:39:27;;;;;;;8.70;1.73;;;3.00;99.90;;;;;;5114784;28;20027;-61
2022/12/11 02:41:55;;;;;;;7.70;2.63;;;3.10;99.90;;;;;;5114855;28;20473;-62
2022/12/11 02:44:28;;;;;;;22.35;3.70;;;3.00;99.90;;;;;;5114827;28;20055;-61
2022/12/11 02:46:55;;;;;;;15.90;3.72;;;3.00;99.90;;;;;;5114548;28;20027;-61
2022/12/11 02:49:23;;;;;;;21.15;3.55;;;3.10;99.90;;;;;;5114815;28;20023;-61
2022/12/11 02:51:51;;;;;;;25.27;3.92;;;3.00;99.90;;;;;;5114608;28;20026;-61
2022/12/11 02:54:28;;;;;;;18.88;3.83;;;3.00;99.90;;;;;;5114788;28;20031;-61
2022/12/11 02:57:43;;;;;;;28.92;3.92;;;3.00;99.90;;;;;;5114682;28;20032;-61
2022/12/11 03:00:10;;;;;;;16.73;3.95;;;3.00;99.90;;;;;;5114049;28;20040;-61
2022/12/11 03:02:37;;;;;;;18.52;3.17;;;3.00;99.90;;;;;;5114570;28;20027;-61
2022/12/11 03:05:04;;;;;;;12.98;3.25;;;3.00;99.90;;;;;;5114600;28;20035;-61
2022/12/11 03:07:35;;;;;;;14.15;3.55;;;2.90;99.90;;;;;;5096078;28;20057;-61
2022/12/11 03:10:01;;;;;;;14.63;4.88;;;3.00;99.90;;;;;;5114403;28;20058;-61
2022/12/11 03:12:30;;;;;;;13.38;3.83;;;3.00;99.90;;;;;;5114588;28;20023;-61
2022/12/11 03:14:59;;;;;;;18.85;3.78;;;3.00;99.90;;;;;;5114521;28;20569;-62
2022/12/11 03:17:41;;;;;;;20.45;4.32;;;3.00;99.90;;;;;;5114483;28;20431;-61
2022/12/11 03:20:25;;;;;;;15.13;4.47;;;3.00;99.90;;;;;;5117935;28;20040;-61
2022/12/11 03:23:04;;;;;;;16.35;4.13;;;2.90;99.90;;;;;;5118029;28;20032;-61
2022/12/11 03:25:53;;;;;;;19.15;3.58;;;2.90;99.90;;;;;;5117943;28;20092;-61
2022/12/11 03:28:43;;;;;;;12.95;3.05;;;2.80;99.90;;;;;;5104676;28;20447;-61
2022/12/11 03:31:13;;;;;;;6.32;2.72;;;2.90;99.90;;;;;;5117945;28;20032;-61
2022/12/11 03:33:42;;;;;;;7.15;2.28;;;2.90;99.90;;;;;;5118106;28;20047;-61
2022/12/11 03:36:24;;;;;;;6.78;2.40;;;2.90;99.90;;;;;;5117729;28;20058;-61
2022/12/11 03:38:57;;;;;;;7.65;2.40;;;2.90;99.90;;;;;;5117758;28;20051;-61
2022/12/11 03:41:26;;;;;;;11.85;3.22;;;3.00;99.90;;;;;;5117686;28;20478;-61
2022/12/11 03:43:55;;;;;;;9.02;3.92;;;3.00;99.90;;;;;;5117689;28;20027;-61
2022/12/11 03:46:26;;;;;;;11.65;5.18;;;3.00;99.90;;;;;;5117657;28;20036;-61
2022/12/11 03:48:55;;;;;;;9.30;3.47;;;2.90;99.90;;;;;;5117817;28;20357;-61
2022/12/11 03:51:23;;;;;;;11.68;3.83;;;2.90;99.90;;;;;;5117449;28;20376;-61
2022/12/11 03:53:49;;;;;;;9.93;3.13;;;2.80;99.90;;;;;;5117420;28;20035;-61
2022/12/11 03:56:17;;;;;;;9.40;2.40;;;2.90;99.90;;;;;;5117413;28;20027;-61
2022/12/11 03:58:43;;;;;;;9.30;2.00;;;2.80;99.90;;;;;;5117430;28;20030;-61
2022/12/11 04:01:10;;;;;;;17.58;2.88;;;2.90;99.90;;;;;;5117438;28;20019;-61
2022/12/11 04:03:37;;;;;;;22.10;4.38;;;3.00;99.90;;;;;;5117431;28;20457;-61
2022/12/11 04:06:03;;;;;;;14.48;3.40;;;3.00;99.90;;;;;;5117012;28;20020;-61
2022/12/11 04:08:29;;;;;;;18.75;3.38;;;2.90;99.90;;;;;;5117179;28;20525;-61
2022/12/11 04:15:00;;;;;;;8.15;3.25;;;3.00;99.90;;;;;;5100561;28;20413;-61
2022/12/11 04:16:33;;;;;;;11.30;2.65;;;3.00;99.90;;;;;;5116774;28;20035;-61
2022/12/11 04:24:28;;;;;;;10.30;3.40;;;3.00;99.90;;;;;;5116866;28;20042;-61
2022/12/11 04:26:53;;;;;;;10.32;3.67;;;3.00;99.90;;;;;;5116751;28;20106;-61
2022/12/11 04:29:19;;;;;;;10.45;4.50;;;3.00;99.90;;;;;;5116702;28;20020;-61
2022/12/11 04:31:46;;;;;;;9.63;4.45;;;3.00;99.90;;;;;;5116640;28;20027;-61
2022/12/11 04:34:12;;;;;;;13.07;4.78;;;2.90;99.90;;;;;;5116818;28;20024;-61
2022/12/11 04:36:37;;;;;;;13.85;4.53;;;2.90;99.90;;;;;;5116621;28;20024;-61
2022/12/11 04:39:04;;;;;;;15.82;6.25;;;2.90;99.90;;;;;;5116600;28;20498;-61
2022/12/11 04:41:31;;;;;;;15.25;7.10;;;2.90;99.90;;;;;;5116351;28;20460;-61
2022/12/11 04:43:56;;;;;;;34.92;11.63;;;2.90;99.90;;;;;;5116469;28;20043;-61
2022/12/11 04:46:23;;;;;;;79.95;17.10;;;2.90;99.90;;;;;;5116459;28;20036;-61
2022/12/11 04:48:50;;;;;;;53.90;17.20;;;2.90;99.90;;;;;;5116382;28;20023;-61
2022/12/11 04:51:17;;;;;;;56.67;16.65;;;3.00;99.90;;;;;;5116299;28;20025;-61
2022/12/11 04:53:44;;;;;;;60.03;17.30;;;3.00;99.90;;;;;;5116416;28;20031;-61
2022/12/11 04:56:12;;;;;;;64.53;18.15;;;3.10;99.90;;;;;;5116212;28;20031;-61
2022/12/11 04:58:40;;;;;;;68.72;17.73;;;3.00;99.90;;;;;;5116210;28;20088;-61
2022/12/11 05:01:13;;;;;;;74.65;18.73;;;3.00;99.90;;;;;;5116054;28;20060;-61
2022/12/11 05:03:39;;;;;;;51.63;13.63;;;3.00;99.90;;;;;;5116007;28;20076;-61
2022/12/11 05:06:06;;;;;;;81.60;16.55;;;3.00;99.90;;;;;;5115995;28;20020;-61
2022/12/11 05:08:34;;;;;;;77.53;17.08;;;3.00;99.90;;;;;;5115991;28;20031;-61
2022/12/11 05:11:03;;;;;;;84.45;19.05;;;3.00;99.90;;;;;;5115974;28;20023;-61
2022/12/11 05:13:30;;;;;;;72.13;18.02;;;2.90;99.90;;;;;;5115850;28;20366;-61
2022/12/11 05:15:57;;;;;;;48.00;15.30;;;3.00;99.90;;;;;;5115878;28;20039;-61
2022/12/11 05:18:23;;;;;;;53.55;16.13;;;3.10;99.90;;;;;;5115808;28;20111;-61
2022/12/11 05:20:57;;;;;;;43.10;14.43;;;3.00;99.90;;;;;;5115692;28;20039;-61
2022/12/11 05:23:23;;;;;;;40.10;13.05;;;2.90;99.90;;;;;;5097413;28;20031;-61
2022/12/11 05:26:01;;;;;;;36.40;12.57;;;3.00;99.90;;;;;;5115754;28;20134;-61
2022/12/11 05:28:29;;;;;;;32.30;11.88;;;3.10;99.90;;;;;;5115513;28;20499;-61
2022/12/11 05:30:56;;;;;;;29.88;10.32;;;3.00;99.90;;;;;;5097313;28;20028;-61
2022/12/11 05:33:23;;;;;;;26.95;10.60;;;3.10;99.90;;;;;;5115446;28;20088;-61
2022/12/11 05:35:49;;;;;;;23.65;8.93;;;3.00;99.90;;;;;;5115385;28;20038;-61
2022/12/11 05:38:15;;;;;;;18.88;7.07;;;3.10;99.90;;;;;;5115467;28;20087;-61
2022/12/11 05:40:41;;;;;;;28.88;8.88;;;3.10;99.90;;;;;;5114950;28;20474;-61
2022/12/11 05:43:07;;;;;;;25.67;9.27;;;3.10;99.90;;;;;;5115439;28;20055;-61
2022/12/11 05:45:33;;;;;;;20.60;8.15;;;3.10;99.90;;;;;;5115286;28;20054;-61
2022/12/11 05:47:59;;;;;;;24.45;11.32;;;3.10;99.90;;;;;;5115400;28;20369;-61
2022/12/11 05:50:25;;;;;;;16.70;6.80;;;3.20;99.90;;;;;;5115083;28;20027;-61
2022/12/11 05:52:51;;;;;;;18.30;8.20;;;3.10;99.90;;;;;;5115334;28;20023;-61
2022/12/11 05:55:17;;;;;;;20.02;7.43;;;3.20;99.90;;;;;;5115277;28;20091;-61
2022/12/11 05:57:43;;;;;;;18.85;7.28;;;3.20;99.90;;;;;;5115095;28;20032;-61
2022/12/11 06:00:11;;;;;;;19.67;6.93;;;3.10;99.90;;;;;;5115263;28;20027;-61
2022/12/11 06:02:37;;;;;;;20.88;7.22;;;2.80;99.90;;;;;;5115066;28;20054;-61
2022/12/11 06:05:03;;;;;;;15.88;5.85;;;3.00;99.90;;;;;;5114983;28;20028;-61
2022/12/11 06:07:29;;;;;;;16.60;6.22;;;3.10;99.90;;;;;;5115020;28;20034;-61
2022/12/11 06:09:55;;;;;;;23.17;8.73;;;3.10;99.90;;;;;;5114960;28;20020;-61
2022/12/11 06:12:21;;;;;;;15.98;6.68;;;3.20;99.90;;;;;;5115012;28;20030;-61
2022/12/11 06:14:47;;;;;;;16.90;7.00;;;3.00;99.90;;;;;;5115274;28;20104;-61
2022/12/11 06:17:13;;;;;;;13.90;6.70;;;3.10;99.90;;;;;;5114940;28;20035;-61
2022/12/11 06:19:39;;;;;;;15.55;6.05;;;3.10;99.90;;;;;;5114795;28;20177;-61
2022/12/11 06:22:05;;;;;;;11.20;4.45;;;3.20;99.90;;;;;;5115053;28;20028;-61
2022/12/11 06:24:31;;;;;;;11.18;4.82;;;3.20;99.90;;;;;;5114936;28;20120;-61
2022/12/11 06:26:57;;;;;;;18.67;5.35;;;3.20;99.90;;;;;;5114777;28;20072;-61
2022/12/11 06:29:23;;;;;;;11.43;5.30;;;3.30;99.90;;;;;;5114758;28;20053;-61
2022/12/11 06:31:48;;;;;;;12.65;5.30;;;3.30;99.90;;;;;;5114915;28;20016;-61
2022/12/11 06:34:14;;;;;;;22.00;6.50;;;3.30;99.90;;;;;;5114955;28;20031;-61
2022/12/11 06:36:40;;;;;;;18.65;7.75;;;3.30;99.90;;;;;;5114796;28;20538;-61
2022/12/11 06:39:07;;;;;;;32.28;11.95;;;3.30;99.90;;;;;;5114892;28;20083;-61
2022/12/11 06:41:33;;;;;;;26.60;12.55;;;3.40;99.90;;;;;;5114641;28;20473;-61
2022/12/11 06:43:59;;;;;;;40.08;17.45;;;3.40;99.90;;;;;;5114810;28;20096;-61
2022/12/11 06:46:25;;;;;;;39.45;18.13;;;3.40;99.90;;;;;;5114545;28;20030;-61
2022/12/11 06:48:51;;;;;;;30.42;11.40;;;3.40;99.90;;;;;;5114703;28;20031;-61
2022/12/11 06:51:19;;;;;;;33.15;14.63;;;3.40;99.90;;;;;;5114600;28;20056;-61
2022/12/11 06:53:50;;;;;;;21.42;10.98;;;3.50;99.90;;;;;;5116519;28;20019;-61
2022/12/11 06:56:16;;;;;;;20.23;11.63;;;3.50;99.90;;;;;;5118629;28;20381;-61
2022/12/11 06:58:43;;;;;;;26.70;14.70;;;3.40;99.90;;;;;;5118523;28;20031;-61
2022/12/11 07:01:20;;;;;;;25.30;14.05;;;3.50;99.90;;;;;;5118335;28;20035;-61
2022/12/11 07:03:46;;;;;;;24.92;15.27;;;3.50;99.90;;;;;;5118431;28;20024;-61
2022/12/11 07:06:13;;;;;;;34.97;16.35;;;3.50;99.90;;;;;;5118189;28;20508;-61
2022/12/11 07:08:40;;;;;;;25.60;12.98;;;3.50;99.90;;;;;;5118085;28;20359;-61
2022/12/11 07:11:11;;;;;;;35.42;17.30;;;3.50;99.90;;;;;;5118332;28;20019;-61
2022/12/11 07:13:37;;;;;;;37.65;20.80;;;3.50;99.90;;;;;;5118397;28;20462;-61
2022/12/11 07:16:09;;;;;;;54.30;22.92;;;3.50;99.90;;;;;;5118170;28;20024;-61
2022/12/11 07:18:36;;;;;;;46.20;21.10;;;3.50;99.90;;;;;;5118052;28;20035;-61
2022/12/11 07:21:03;;;;;;;45.78;21.58;;;3.50;99.90;;;;;;5118093;28;20062;-61
2022/12/11 07:23:29;;;;;;;50.45;22.60;;;3.60;99.90;;;;;;5099655;28;20031;-61
2022/12/11 07:25:55;;;;;;;42.63;19.88;;;3.50;99.90;;;;;;5117878;28;20032;-61
2022/12/11 07:28:22;;;;;;;46.25;19.00;;;3.50;99.90;;;;;;5118068;28;20027;-61
2022/12/11 07:30:48;;;;;;;50.22;18.98;;;3.50;99.90;;;;;;5117922;28;20027;-61
2022/12/11 07:33:14;;;;;;;49.40;18.40;;;3.60;99.90;;;;;;5117898;28;20469;-61
2022/12/11 07:35:40;;;;;;;52.97;20.67;;;3.60;99.90;;;;;;5117767;28;20030;-61
2022/12/11 07:38:07;;;;;;;75.18;24.23;;;3.60;99.90;;;;;;5117847;28;20028;-61
2022/12/11 07:40:33;;;;;;;78.32;26.65;;;3.50;99.90;;;;;;5117720;28;20055;-61
2022/12/11 07:42:59;;;;;;;70.05;24.25;;;3.60;99.90;;;;;;5117782;28;20063;-62
2022/12/11 07:45:25;;;;;;;74.15;24.67;;;3.70;99.90;;;;;;5117449;28;20066;-61
2022/12/11 07:47:51;;;;;;;75.82;26.75;;;3.80;99.90;;;;;;5117954;28;20434;-61
2022/12/11 07:50:18;;;;;;;92.55;29.23;;;3.80;99.90;;;;;;5117407;28;20059;-61
2022/12/11 07:52:44;;;;;;;103.85;32.97;;;3.80;99.90;;;;;;5117516;28;20031;-61
2022/12/11 07:55:10;;;;;;;104.20;31.67;;;3.70;99.90;;;;;;5117440;28;20097;-61
2022/12/11 07:57:36;;;;;;;97.53;33.88;;;3.80;99.90;;;;;;5117396;28;20052;-61
2022/12/11 08:00:03;;;;;;;116.22;37.03;;;3.70;99.90;;;;;;5117329;28;20110;-61
2022/12/11 08:02:38;;;;;;;116.00;38.60;;;3.80;99.90;;;;;;5116864;28;20408;-61
2022/12/11 08:05:04;;;;;;;118.32;37.33;;;3.80;99.90;;;;;;5116761;28;20020;-61
2022/12/11 08:07:33;;;;;;;140.63;49.92;;;3.80;99.90;;;;;;5117109;28;20020;-61
2022/12/11 08:09:59;;;;;;;88.57;30.90;;;3.90;99.90;;;;;;5117038;28;20480;-61
2022/12/11 08:12:25;;;;;;;91.43;32.05;;;3.90;99.90;;;;;;5116951;28;20016;-62
2022/12/11 08:14:51;;;;;;;80.88;27.77;;;3.80;99.90;;;;;;5117140;28;20168;-62
2022/12/11 08:17:17;;;;;;;90.53;31.80;;;3.90;99.90;;;;;;5117093;28;20469;-61
2022/12/11 08:19:43;;;;;;;85.88;28.00;;;4.00;99.90;;;;;;5116779;28;20514;-61
2022/12/11 08:22:09;;;;;;;80.15;27.98;;;3.90;99.90;;;;;;5116733;28;20366;-61
2022/12/11 08:24:36;;;;;;;72.80;26.13;;;3.80;99.90;;;;;;5116956;28;20374;-61
2022/12/11 08:27:02;;;;;;;66.32;24.70;;;3.80;99.90;;;;;;5116699;28;20347;-61
2022/12/11 08:29:28;;;;;;;58.97;22.17;;;3.90;99.90;;;;;;5116815;28;20077;-61
2022/12/11 08:31:54;;;;;;;60.50;23.70;;;4.00;99.90;;;;;;5116610;28;20454;-61
2022/12/11 08:34:20;;;;;;;58.78;22.85;;;4.00;99.90;;;;;;5116721;28;20024;-61
2022/12/11 08:36:46;;;;;;;59.97;24.75;;;4.00;99.90;;;;;;5116557;28;20504;-61
2022/12/11 08:39:12;;;;;;;62.13;24.83;;;4.00;99.90;;;;;;5116565;28;20503;-61
2022/12/11 08:41:38;;;;;;;89.55;40.85;;;4.00;99.90;;;;;;5116545;28;20023;-62
2022/12/11 08:44:04;;;;;;;87.97;39.17;;;3.90;99.90;;;;;;5116517;28;20114;-61
2022/12/11 08:46:31;;;;;;;75.43;34.08;;;3.90;99.90;;;;;;5116344;28;20020;-61
2022/12/11 08:48:58;;;;;;;56.85;26.95;;;3.90;99.90;;;;;;5116431;28;20110;-62
2022/12/11 08:51:27;;;;;;;43.67;20.15;;;3.90;99.90;;;;;;5116055;28;20027;-62
2022/12/11 08:53:58;;;;;;;49.30;22.67;;;3.90;99.90;;;;;;5116327;28;20061;-61
2022/12/11 08:56:25;;;;;;;45.00;21.58;;;3.90;99.90;;;;;;5116182;28;20114;-61
2022/12/11 08:58:51;;;;;;;57.58;29.20;;;3.90;99.90;;;;;;5116203;28;20023;-61
2022/12/11 09:01:25;;;;;;;82.80;37.92;;;3.90;99.90;;;;;;5116183;28;20037;-61
2022/12/11 09:03:52;;;;;;;77.80;36.13;;;3.90;99.90;;;;;;5115931;28;20073;-61
2022/12/11 09:06:22;;;;;;;68.93;32.15;;;4.00;99.90;;;;;;5115998;28;20513;-61
2022/12/11 09:08:49;;;;;;;66.15;30.63;;;4.00;99.90;;;;;;5115917;28;20047;-61
2022/12/11 09:11:19;;;;;;;69.20;33.42;;;4.00;99.90;;;;;;5115941;28;20033;-61
2022/12/11 09:13:45;;;;;;;67.90;32.85;;;4.00;99.90;;;;;;5115938;28;20015;-61
2022/12/11 09:16:14;;;;;;;52.03;27.65;;;4.30;99.90;;;;;;5114997;28;20026;-61
2022/12/11 09:18:40;;;;;;;53.63;25.55;;;4.20;99.90;;;;;;5115617;28;20505;-61
2022/12/11 09:21:12;;;;;;;46.38;23.77;;;4.20;99.90;;;;;;5115963;28;20504;-61
2022/12/11 09:23:39;;;;;;;51.00;23.40;;;4.20;99.90;;;;;;5115727;28;20469;-61
2022/12/11 09:26:06;;;;;;;52.80;25.70;;;4.30;99.90;;;;;;5115554;28;20058;-61
2022/12/11 09:28:32;;;;;;;53.35;25.85;;;4.20;99.90;;;;;;5115559;28;20367;-61
2022/12/11 09:30:58;;;;;;;57.75;26.42;;;4.20;99.90;;;;;;5115486;28;20469;-61
2022/12/11 09:33:24;;;;;;;64.18;26.38;;;4.20;99.90;;;;;;5115531;28;20030;-61
2022/12/11 09:35:58;;;;;;;54.50;24.60;;;4.20;99.90;;;;;;5115589;28;20027;-61
2022/12/11 09:38:25;;;;;;;57.70;24.25;;;4.30;99.90;;;;;;5115392;28;20062;-61
2022/12/11 09:40:50;;;;;;;58.35;25.58;;;4.20;99.90;;;;;;5115582;28;20498;-61
2022/12/11 09:43:38;;;;;;;96.53;38.42;;;4.20;99.90;;;;;;5115331;28;20023;-61
2022/12/11 09:46:10;;;;;;;100.03;41.30;;;4.20;99.90;;;;;;5064597;28;20062;-62
2022/12/11 09:48:38;;;;;;;101.30;36.90;;;4.20;99.90;;;;;;5115327;28;20020;-61
2022/12/11 09:51:17;;;;;;;81.78;32.20;;;4.20;99.90;;;;;;5115233;28;20077;-61
2022/12/11 09:53:44;;;;;;;95.00;34.17;;;4.20;99.90;;;;;;5115085;28;20034;-61
2022/12/11 09:56:22;;;;;;;109.82;35.88;;;4.30;99.90;;;;;;5115161;28;20027;-61
2022/12/11 09:59:00;;;;;;;106.15;37.47;;;4.40;99.90;;;;;;5115233;28;20035;-62
2022/12/11 10:01:35;;;;;;;104.15;40.85;;;4.30;99.90;;;;;;5115036;28;20024;-61
2022/12/11 10:04:01;;;;;;;75.50;29.38;;;4.40;99.90;;;;;;5115065;28;20027;-61
2022/12/11 10:06:50;;;;;;;83.88;36.97;;;4.40;99.90;;;;;;5114794;28;20146;-62
2022/12/11 10:09:29;;;;;;;80.22;30.48;;;4.50;99.90;;;;;;5097132;28;20039;-62
2022/12/11 10:12:11;;;;;;;81.70;31.13;;;4.60;99.90;;;;;;5115021;28;20058;-62
2022/12/11 10:14:40;;;;;;;100.90;38.15;;;4.50;99.90;;;;;;5114818;28;20024;-62
2022/12/11 10:17:16;;;;;;;70.43;28.55;;;4.60;99.90;;;;;;5115008;28;20054;-61
2022/12/11 10:19:42;;;;;;;83.53;32.22;;;4.50;99.90;;;;;;5114731;28;20071;-61
2022/12/11 10:22:19;;;;;;;92.07;36.35;;;4.50;99.90;;;;;;5114911;28;20501;-61
2022/12/11 10:24:55;;;;;;;100.05;36.97;;;4.60;99.90;;;;;;5114983;28;20059;-62
2022/12/11 10:27:25;;;;;;;129.90;52.58;;;4.60;99.90;;;;;;5115881;28;20032;-61
2022/12/11 10:30:17;;;;;;;102.63;40.40;;;4.50;99.90;;;;;;5119192;28;20520;-62
2022/12/11 10:32:56;;;;;;;94.68;36.50;;;4.50;99.90;;;;;;5114192;28;20036;-61
2022/12/11 10:35:45;;;;;;;71.07;24.45;;;4.60;99.90;;;;;;5119354;28;20063;-61
2022/12/11 10:38:51;;;;;;;51.25;23.42;;;4.60;99.90;;;;;;5118942;28;20422;-62
2022/12/11 10:41:23;;;;;;;53.17;22.88;;;4.70;99.90;;;;;;5016049;28;20405;-62
2022/12/11 10:43:51;;;;;;;52.42;22.63;;;4.70;99.90;;;;;;5015900;28;20044;-62
2022/12/11 10:46:17;;;;;;;51.60;22.10;;;4.70;99.90;;;;;;5015934;28;20470;-62
2022/12/11 10:48:52;;;;;;;49.75;23.52;;;4.80;99.90;;;;;;5015869;28;20137;-61
2022/12/11 10:51:23;;;;;;;46.72;22.52;;;4.80;99.90;;;;;;5015660;28;20116;-62
2022/12/11 10:53:55;;;;;;;49.75;23.02;;;4.90;99.90;;;;;;5015853;28;20030;-61
2022/12/11 10:56:28;;;;;;;48.38;23.23;;;4.80;99.90;;;;;;5015583;28;20404;-61
2022/12/11 10:58:56;;;;;;;45.40;23.27;;;4.80;99.90;;;;;;5015604;28;20033;-61
2022/12/11 11:01:25;;;;;;;45.08;21.50;;;4.80;99.90;;;;;;5015666;28;20038;-62
2022/12/11 11:03:53;;;;;;;40.03;20.77;;;4.90;99.90;;;;;;5015610;28;20062;-62
2022/12/11 11:06:21;;;;;;;41.35;23.00;;;4.90;99.90;;;;;;5015425;28;20030;-62
2022/12/11 11:08:50;;;;;;;41.45;20.90;;;4.90;99.90;;;;;;5015324;28;20419;-62
2022/12/11 11:11:26;;;;;;;47.28;22.77;;;5.00;99.90;;;;;;5015396;28;20034;-61
2022/12/11 11:14:06;;;;;;;41.78;21.75;;;5.10;99.90;;;;;;5015571;28;20440;-61
2022/12/11 11:16:37;;;;;;;55.27;27.30;;;5.10;99.90;;;;;;5118089;28;20162;-61
2022/12/11 11:19:04;;;;;;;;;;;5.00;99.90;;;;;;5118475;28;20054;-62
2022/12/11 11:21:31;;;;;;;63.78;30.63;;;5.10;99.90;;;;;;5118007;28;19923;-62
2022/12/11 11:23:57;;;;;;;71.03;33.05;;;5.10;99.90;;;;;;5117973;28;20027;-62
2022/12/11 11:26:23;;;;;;;68.25;32.95;;;5.10;99.90;;;;;;5117971;28;20119;-62
2022/12/11 11:28:56;;;;;;;62.03;28.85;;;5.20;99.90;;;;;;5117919;28;20020;-62
2022/12/11 11:31:32;;;;;;;63.08;29.08;;;5.20;99.90;;;;;;5118031;28;20030;-61
2022/12/11 11:34:05;;;;;;;55.83;25.45;;;5.20;99.90;;;;;;5117784;28;20024;-62
2022/12/11 11:36:33;;;;;;;66.32;29.38;;;5.20;99.90;;;;;;5117835;28;20377;-61
2022/12/11 11:39:23;;;;;;;65.95;30.60;;;5.20;99.90;;;;;;5116767;28;20035;-62
2022/12/11 11:41:59;;;;;;;49.67;23.73;;;5.00;99.90;;;;;;5117777;28;20027;-62
2022/12/11 11:45:00;;;;;;;50.35;23.85;;;5.10;99.90;;;;;;5117495;28;20031;-62
2022/12/11 11:47:33;;;;;;;41.22;22.15;;;5.10;99.90;;;;;;5117607;28;20461;-62
2022/12/11 11:50:14;;;;;;;44.67;22.23;;;5.20;99.90;;;;;;5117479;28;20028;-61
2022/12/11 11:52:50;;;;;;;44.03;21.92;;;5.20;99.90;;;;;;5117388;28;20385;-61
2022/12/11 11:55:26;;;;;;;43.05;21.00;;;5.20;99.90;;;;;;5117463;28;20027;-62
2022/12/11 11:58:33;;;;;;;34.20;17.80;;;5.30;99.90;;;;;;5117605;28;20032;-62
2022/12/11 12:00:59;;;;;;;31.77;17.25;;;5.30;99.90;;;;;;4997935;28;20029;-61
2022/12/11 12:03:28;;;;;;;40.25;20.73;;;5.40;99.90;;;;;;5014633;28;20054;-61
2022/12/11 12:06:08;;;;;;;36.17;20.75;;;5.40;99.90;;;;;;5014399;28;20037;-62
2022/12/11 12:08:40;;;;;;;39.63;21.38;;;5.40;99.90;;;;;;5014384;28;20041;-62
2022/12/11 12:11:21;;;;;;;35.17;19.52;;;5.40;99.90;;;;;;4994933;28;20035;-61
2022/12/11 12:13:59;;;;;;;33.58;19.95;;;5.40;99.90;;;;;;4994814;28;20394;-62
2022/12/11 12:16:46;;;;;;;37.40;21.17;;;5.30;99.90;;;;;;4994745;28;20074;-62
2022/12/11 12:19:18;;;;;;;33.88;19.48;;;5.30;99.90;;;;;;4994625;28;20424;-62
2022/12/11 12:21:49;;;;;;;31.20;17.80;;;5.40;99.90;;;;;;4994484;28;20049;-61
2022/12/11 12:24:46;;;;;;;39.15;21.10;;;5.40;99.90;;;;;;4994568;28;20475;-61
2022/12/11 12:27:20;;;;;;;24.77;15.32;;;5.40;99.90;;;;;;4994576;28;20034;-62
2022/12/11 12:30:10;;;;;;;29.48;17.38;;;5.50;99.90;;;;;;4994401;28;20158;-62
2022/12/11 12:33:13;;;;;;;35.50;19.17;;;5.40;99.90;;;;;;4994571;28;20034;-61
2022/12/11 12:35:56;;;;;;;29.45;17.50;;;5.40;99.90;;;;;;5078053;28;20044;-61
2022/12/11 12:38:58;;;;;;;27.67;15.88;;;5.40;99.90;;;;;;5096176;28;20071;-61
2022/12/11 12:41:35;;;;;;;28.38;17.58;;;5.40;99.90;;;;;;5053503;28;20456;-61
2022/12/11 12:44:07;;;;;;;29.50;14.85;;;5.40;99.90;;;;;;5090612;28;20520;-62
2022/12/11 12:46:51;;;;;;;23.60;13.45;;;5.40;99.90;;;;;;5094785;28;20127;-62
2022/12/11 12:49:46;;;;;;;26.98;15.68;;;5.20;99.90;;;;;;5094823;28;20028;-62
2022/12/11 12:52:23;;;;;;;27.67;16.13;;;5.20;99.90;;;;;;5095904;28;20024;-61
2022/12/11 12:55:13;;;;;;;33.13;17.73;;;5.10;99.90;;;;;;5095673;28;20027;-62
2022/12/11 12:58:00;;;;;;;39.90;20.47;;;5.20;99.90;;;;;;5095873;28;20453;-61
2022/12/11 13:00:39;;;;;;;27.42;15.45;;;5.20;99.90;;;;;;5095789;28;20378;-62
2022/12/11 13:03:25;;;;;;;27.27;15.45;;;5.20;99.90;;;;;;5095979;28;20028;-61
2022/12/11 13:06:05;;;;;;;27.83;15.02;;;5.10;99.90;;;;;;5095437;28;20078;-61
2022/12/11 13:08:55;;;;;;;28.90;14.30;;;5.10;99.90;;;;;;5095700;28;20378;-62
2022/12/11 13:11:32;;;;;;;30.07;15.80;;;5.10;99.90;;;;;;5095715;28;20150;-62